createdAt,value
2023-11-09T00:01:31.370Z,1.00
2023-11-09T00:03:58.416Z,0.68
2023-11-09T00:06:25.330Z,0.88
2023-11-09T00:08:52.131Z,1.00
2023-11-09T00:11:21.635Z,0.88
2023-11-09T00:13:50.517Z,0.77
2023-11-09T00:16:17.400Z,1.05
2023-11-09T00:18:44.230Z,0.98
2023-11-09T00:21:11.205Z,0.70
2023-11-09T00:23:38.065Z,0.70
2023-11-09T00:26:05.089Z,0.68
2023-11-09T00:28:31.925Z,0.93
2023-11-09T00:30:58.730Z,0.90
2023-11-09T00:33:25.568Z,0.70
2023-11-09T00:35:54.146Z,1.00
2023-11-09T00:38:21.021Z,0.70
2023-11-09T00:40:47.917Z,0.93
2023-11-09T00:43:14.707Z,0.73
2023-11-09T00:45:42.311Z,0.63
2023-11-09T00:48:09.304Z,0.70
2023-11-09T00:50:36.135Z,0.80
2023-11-09T00:53:02.878Z,0.68
2023-11-09T00:55:29.714Z,0.70
2023-11-09T00:57:56.865Z,0.57
2023-11-09T01:00:23.742Z,0.57
2023-11-09T01:02:52.314Z,0.93
2023-11-09T01:05:19.382Z,0.93
2023-11-09T01:07:47.671Z,1.02
2023-11-09T01:10:14.595Z,1.10
2023-11-09T01:12:41.454Z,1.10
2023-11-09T01:15:08.655Z,1.70
2023-11-09T01:17:39.280Z,1.92
2023-11-09T01:20:07.002Z,1.52
2023-11-09T01:22:35.406Z,1.70
2023-11-09T01:25:02.847Z,1.85
2023-11-09T01:27:29.722Z,2.65
2023-11-09T01:29:56.568Z,2.55
2023-11-09T01:32:23.553Z,2.25
2023-11-09T01:34:50.413Z,1.95
2023-11-09T01:37:17.291Z,2.78
2023-11-09T01:39:45.936Z,2.95
2023-11-09T01:42:15.483Z,2.97
2023-11-09T01:44:42.216Z,2.72
2023-11-09T01:47:09.091Z,2.92
2023-11-09T01:49:37.246Z,3.15
2023-11-09T01:52:04.629Z,2.72
2023-11-09T01:54:33.879Z,2.72
2023-11-09T01:57:00.911Z,2.72
2023-11-09T01:59:32.046Z,2.53
2023-11-09T02:02:00.271Z,2.38
2023-11-09T02:04:28.109Z,1.98
2023-11-09T02:06:57.865Z,1.98
2023-11-09T02:11:53.925Z,1.20
2023-11-09T02:14:21.104Z,1.55
2023-11-09T02:16:48.963Z,1.13
2023-11-09T02:19:20.368Z,1.10
2023-11-09T02:21:54.088Z,0.90
2023-11-09T02:24:23.979Z,0.90
2023-11-09T02:26:51.211Z,1.33
2023-11-09T02:29:21.392Z,0.95
2023-11-09T02:34:40.531Z,0.80
2023-11-09T02:37:08.627Z,1.00
2023-11-09T02:39:35.571Z,0.77
2023-11-09T02:42:03.576Z,0.70
2023-11-09T02:44:30.947Z,0.63
2023-11-09T02:46:57.748Z,0.63
2023-11-09T02:49:24.615Z,0.50
2023-11-09T02:51:52.301Z,0.45
2023-11-09T02:54:19.809Z,0.30
2023-11-09T02:56:47.245Z,0.40
2023-11-09T02:59:14.170Z,0.30
2023-11-09T03:01:41.080Z,0.30
2023-11-09T03:06:43.213Z,0.30
2023-11-09T03:09:12.512Z,0.35
2023-11-09T03:11:40.492Z,0.38
2023-11-09T03:14:07.333Z,0.30
2023-11-09T03:16:34.292Z,0.22
2023-11-09T03:19:01.879Z,0.20
2023-11-09T03:21:28.724Z,0.32
2023-11-09T03:23:55.627Z,0.32
2023-11-09T03:26:22.734Z,0.38
2023-11-09T03:28:49.637Z,0.52
2023-11-09T03:31:16.806Z,0.20
2023-11-09T03:33:44.196Z,0.52
2023-11-09T03:36:17.062Z,0.20
2023-11-09T03:38:44.381Z,0.43
2023-11-09T03:41:11.923Z,0.35
2023-11-09T03:43:38.758Z,0.47
2023-11-09T03:46:05.618Z,0.50
2023-11-09T03:48:32.442Z,0.30
2023-11-09T03:50:59.244Z,0.40
2023-11-09T03:53:26.117Z,0.50
2023-11-09T03:55:52.916Z,0.43
2023-11-09T03:58:20.085Z,0.32
2023-11-09T04:00:46.968Z,0.38
2023-11-09T04:03:15.469Z,0.32
2023-11-09T04:05:42.370Z,0.30
2023-11-09T04:08:09.759Z,0.35
2023-11-09T04:10:36.597Z,0.45
2023-11-09T04:13:03.491Z,0.65
2023-11-09T04:15:30.369Z,0.52
2023-11-09T04:17:57.217Z,0.55
2023-11-09T04:20:24.391Z,0.60
2023-11-09T04:22:51.511Z,0.30
2023-11-09T04:25:19.233Z,0.25
2023-11-09T04:27:46.688Z,0.40
2023-11-09T04:30:17.686Z,0.75
2023-11-09T04:32:44.724Z,0.35
2023-11-09T04:35:11.492Z,0.40
2023-11-09T04:37:42.633Z,0.40
2023-11-09T04:40:17.319Z,0.68
2023-11-09T04:42:48.104Z,0.93
2023-11-09T04:45:16.186Z,0.85
2023-11-09T04:47:44.164Z,1.05
2023-11-09T04:50:23.346Z,1.60
2023-11-09T04:52:58.879Z,1.90
2023-11-09T04:55:33.860Z,1.08
2023-11-09T04:58:22.109Z,1.50
2023-11-09T05:03:53.350Z,1.23
2023-11-09T05:06:38.676Z,1.38
2023-11-09T05:09:05.551Z,1.70
2023-11-09T05:11:32.560Z,2.03
2023-11-09T05:14:01.771Z,2.38
2023-11-09T05:16:30.027Z,2.00
2023-11-09T05:18:57.488Z,2.50
2023-11-09T05:21:24.709Z,2.42
2023-11-09T05:23:52.017Z,3.50
2023-11-09T05:26:19.021Z,3.92
2023-11-09T05:28:46.262Z,3.38
2023-11-09T05:31:13.248Z,3.30
2023-11-09T05:33:40.183Z,4.00
2023-11-09T05:36:08.957Z,4.00
2023-11-09T05:38:37.288Z,4.15
2023-11-09T05:41:08.212Z,4.18
2023-11-09T05:43:35.185Z,4.10
2023-11-09T05:46:02.172Z,3.80
2023-11-09T05:48:32.659Z,3.53
2023-11-09T05:50:59.924Z,3.70
2023-11-09T05:53:29.363Z,4.07
2023-11-09T05:55:57.022Z,3.85
2023-11-09T05:58:24.004Z,3.72
2023-11-09T06:00:50.862Z,4.03
2023-11-09T06:03:17.744Z,4.15
2023-11-09T06:05:44.807Z,3.72
2023-11-09T06:08:13.132Z,4.15
2023-11-09T06:10:40.038Z,3.88
2023-11-09T06:13:07.001Z,4.20
2023-11-09T06:15:33.836Z,4.53
2023-11-09T06:18:00.762Z,4.28
2023-11-09T06:20:27.742Z,4.50
2023-11-09T06:22:54.690Z,4.82
2023-11-09T06:25:21.574Z,4.05
2023-11-09T06:27:48.500Z,3.85
2023-11-09T06:30:15.426Z,4.35
2023-11-09T06:32:42.781Z,3.78
2023-11-09T06:35:14.880Z,3.58
2023-11-09T06:37:43.630Z,3.55
2023-11-09T06:40:12.852Z,3.03
2023-11-09T06:42:41.034Z,3.53
2023-11-09T06:45:12.574Z,3.55
2023-11-09T06:47:43.119Z,3.10
2023-11-09T06:50:13.727Z,2.78
2023-11-09T06:52:42.081Z,2.95
2023-11-09T06:55:13.350Z,2.60
2023-11-09T06:57:42.877Z,2.55
2023-11-09T07:00:11.875Z,2.60
2023-11-09T07:02:39.987Z,2.58
2023-11-09T07:05:08.084Z,3.33
2023-11-09T07:07:35.903Z,3.00
2023-11-09T07:10:03.221Z,3.03
2023-11-09T07:12:30.060Z,3.58
2023-11-09T07:14:57.135Z,5.15
2023-11-09T07:17:23.943Z,3.10
2023-11-09T07:19:51.614Z,2.58
2023-11-09T07:22:22.027Z,2.83
2023-11-09T07:25:08.105Z,2.38
2023-11-09T07:30:29.535Z,2.08
2023-11-09T07:32:56.411Z,2.70
2023-11-09T07:35:25.847Z,2.55
2023-11-09T07:37:52.631Z,2.22
2023-11-09T07:40:19.488Z,2.70
2023-11-09T07:42:47.128Z,2.17
2023-11-09T07:45:14.954Z,2.22
2023-11-09T07:47:41.976Z,2.05
2023-11-09T07:50:11.111Z,1.88
2023-11-09T07:52:38.632Z,2.10
2023-11-09T07:55:07.015Z,2.47
2023-11-09T07:57:35.906Z,2.35
2023-11-09T08:00:06.278Z,2.25
2023-11-09T08:02:33.313Z,1.95
2023-11-09T08:05:00.470Z,2.10
2023-11-09T08:07:27.561Z,2.30
2023-11-09T08:09:54.452Z,2.70
2023-11-09T08:12:21.740Z,2.25
2023-11-09T08:14:48.586Z,2.00
2023-11-09T08:17:25.300Z,2.50
2023-11-09T08:19:56.340Z,2.33
2023-11-09T08:22:23.358Z,2.08
2023-11-09T08:24:50.271Z,2.40
2023-11-09T08:27:17.168Z,2.50
2023-11-09T08:29:44.445Z,2.40
2023-11-09T08:32:11.675Z,2.75
2023-11-09T08:34:41.590Z,2.72
2023-11-09T08:37:11.716Z,2.25
2023-11-09T08:39:38.899Z,1.98
2023-11-09T08:42:06.224Z,2.38
2023-11-09T08:44:36.265Z,2.05
2023-11-09T08:47:04.262Z,2.10
2023-11-09T08:49:31.671Z,2.17
2023-11-09T08:52:01.042Z,2.13
2023-11-09T08:54:29.766Z,2.70
2023-11-09T08:56:56.572Z,1.73
2023-11-09T08:59:25.807Z,1.73
2023-11-09T09:01:53.821Z,1.92
2023-11-09T09:06:55.907Z,1.60
2023-11-09T09:09:26.811Z,2.53
2023-11-09T09:11:58.345Z,1.92
2023-11-09T09:14:25.306Z,1.80
2023-11-09T09:16:52.165Z,2.00
2023-11-09T09:19:19.142Z,1.23
2023-11-09T09:21:46.003Z,1.42
2023-11-09T09:24:12.973Z,1.35
2023-11-09T09:26:39.748Z,1.42
2023-11-09T09:29:07.916Z,1.27
2023-11-09T09:31:35.116Z,1.30
2023-11-09T09:34:08.797Z,1.55
2023-11-09T09:36:38.331Z,1.65
2023-11-09T09:39:05.507Z,1.73
2023-11-09T09:41:42.366Z,1.75
2023-11-09T09:44:13.872Z,1.35
2023-11-09T09:46:44.144Z,2.10
2023-11-09T09:49:12.178Z,1.58
2023-11-09T09:51:41.145Z,2.22
2023-11-09T09:54:11.673Z,2.20
2023-11-09T09:56:39.797Z,1.88
2023-11-09T09:59:10.881Z,2.65
2023-11-09T10:01:51.049Z,2.42
2023-11-09T10:04:18.601Z,1.75
2023-11-09T10:06:47.000Z,2.00
2023-11-09T10:09:16.421Z,1.48
2023-11-09T10:14:13.176Z,1.45
2023-11-09T10:16:42.462Z,1.50
2023-11-09T10:19:10.566Z,1.50
2023-11-09T10:21:37.782Z,1.65
2023-11-09T10:24:08.884Z,1.30
2023-11-09T10:26:41.754Z,1.52
2023-11-09T10:29:15.419Z,1.50
2023-11-09T10:31:43.676Z,1.23
2023-11-09T10:34:13.464Z,1.23
2023-11-09T10:36:42.071Z,1.10
2023-11-09T10:39:23.239Z,1.00
2023-11-09T10:41:56.728Z,1.48
2023-11-09T10:44:30.899Z,1.08
2023-11-09T10:47:03.856Z,1.00
2023-11-09T10:49:37.955Z,2.35
2023-11-09T10:52:06.878Z,0.90
2023-11-09T10:54:34.078Z,1.10
2023-11-09T10:57:02.121Z,1.17
2023-11-09T10:59:30.937Z,1.92
2023-11-09T11:02:05.886Z,1.10
2023-11-09T11:07:23.327Z,1.05
2023-11-09T11:09:52.550Z,1.33
2023-11-09T11:12:22.497Z,1.02
2023-11-09T11:14:52.793Z,1.05
2023-11-09T11:18:08.335Z,1.73
2023-11-09T11:20:53.113Z,1.33
2023-11-09T11:24:09.263Z,1.83
2023-11-09T11:27:16.131Z,1.13
2023-11-09T11:29:46.984Z,1.45
2023-11-09T11:32:23.448Z,0.90
2023-11-09T11:34:57.545Z,1.58
2023-11-09T11:37:27.272Z,1.00
2023-11-09T11:39:55.295Z,0.63
2023-11-09T11:42:24.768Z,1.10
2023-11-09T11:44:58.298Z,1.50
2023-11-09T11:47:31.151Z,1.15
2023-11-09T11:50:10.919Z,1.55
2023-11-09T11:52:39.181Z,0.80
2023-11-09T11:55:11.849Z,1.10
2023-11-09T11:58:14.881Z,1.58
2023-11-09T12:00:43.341Z,1.10
2023-11-09T12:03:11.880Z,0.80
2023-11-09T12:05:41.832Z,1.00
2023-11-09T12:08:15.471Z,1.50
2023-11-09T12:10:43.474Z,0.90
2023-11-09T12:13:11.370Z,1.33
2023-11-09T12:15:38.582Z,1.38
2023-11-09T12:18:10.053Z,1.48
2023-11-09T12:20:37.876Z,0.90
2023-11-09T12:23:08.530Z,0.88
2023-11-09T12:25:55.146Z,1.17
2023-11-09T12:28:25.462Z,1.25
2023-11-09T12:30:53.612Z,0.82
2023-11-09T12:33:21.470Z,1.05
2023-11-09T12:36:05.580Z,1.30
2023-11-09T12:38:36.181Z,0.93
2023-11-09T12:41:03.921Z,0.63
2023-11-09T12:43:37.885Z,1.25
2023-11-09T12:46:09.912Z,1.00
2023-11-09T12:48:44.765Z,1.10
2023-11-09T12:51:14.261Z,1.02
2023-11-09T12:53:43.778Z,0.98
2023-11-09T12:56:15.931Z,0.88
2023-11-09T12:58:45.283Z,0.63
2023-11-09T13:01:15.524Z,0.95
2023-11-09T13:03:46.001Z,1.17
2023-11-09T13:06:23.624Z,0.70
2023-11-09T13:09:09.581Z,0.70
2023-11-09T13:11:43.513Z,0.63
2023-11-09T13:14:18.562Z,1.20
2023-11-09T13:16:46.146Z,1.35
2023-11-09T13:19:27.533Z,0.85
2023-11-09T13:21:54.691Z,0.85
2023-11-09T13:24:31.775Z,1.10
2023-11-09T13:26:59.783Z,0.65
2023-11-09T13:29:27.616Z,1.42
2023-11-09T13:31:58.062Z,1.20
2023-11-09T13:34:37.772Z,0.50
2023-11-09T13:37:05.962Z,0.82
2023-11-09T13:39:52.259Z,0.88
2023-11-09T13:42:23.304Z,0.77
2023-11-09T13:44:50.255Z,0.70
2023-11-09T13:47:20.113Z,0.50
2023-11-09T13:49:49.761Z,0.77
2023-11-09T13:55:14.397Z,0.65
2023-11-09T13:57:43.883Z,0.65
2023-11-09T14:00:25.029Z,0.57
2023-11-09T14:02:52.066Z,1.33
2023-11-09T14:05:19.065Z,0.73
2023-11-09T14:07:49.612Z,0.80
2023-11-09T14:10:24.226Z,0.60
2023-11-09T14:12:51.143Z,0.60
2023-11-09T14:15:25.217Z,0.60
2023-11-09T14:17:53.311Z,1.05
2023-11-09T14:20:32.107Z,0.50
2023-11-09T14:23:01.212Z,1.58
2023-11-09T14:25:28.181Z,0.77
2023-11-09T14:27:56.384Z,1.00
2023-11-09T14:30:31.908Z,0.60
2023-11-09T14:33:03.421Z,0.50
2023-11-09T14:35:34.709Z,0.50
2023-11-09T14:38:06.455Z,1.08
2023-11-09T14:40:37.662Z,0.98
2023-11-09T14:43:10.777Z,0.65
2023-11-09T14:45:46.985Z,0.60
2023-11-09T14:48:14.731Z,0.70
2023-11-09T14:50:49.289Z,0.52
2023-11-09T14:53:30.207Z,0.70
2023-11-09T14:56:06.132Z,1.20
2023-11-09T14:58:35.056Z,0.50
2023-11-09T15:01:06.528Z,0.60
2023-11-09T15:03:35.769Z,0.60
2023-11-09T15:06:12.172Z,0.40
2023-11-09T15:08:40.373Z,0.38
2023-11-09T15:11:12.006Z,0.20
2023-11-09T15:13:39.273Z,0.20
2023-11-09T15:16:09.581Z,0.10
2023-11-09T15:18:36.704Z,0.10
2023-11-09T15:21:05.593Z,0.10
2023-11-09T15:23:34.113Z,0.10
2023-11-09T15:26:01.489Z,0.10
2023-11-09T15:28:29.640Z,0.20
2023-11-09T15:30:56.614Z,0.10
2023-11-09T15:33:23.464Z,0.00
2023-11-09T15:35:50.964Z,0.05
2023-11-09T15:38:17.903Z,0.10
2023-11-09T15:41:15.887Z,0.08
2023-11-09T15:43:39.242Z,0.35
2023-11-09T15:46:12.348Z,0.10
2023-11-09T15:48:41.333Z,0.38
2023-11-09T15:51:09.249Z,0.20
2023-11-09T15:53:38.698Z,0.20
2023-11-09T15:56:06.691Z,0.20
2023-11-09T15:58:34.715Z,0.10
2023-11-09T16:01:03.438Z,0.20
2023-11-09T16:03:32.355Z,0.10
2023-11-09T16:05:59.471Z,0.13
2023-11-09T16:08:28.393Z,0.10
2023-11-09T16:10:55.344Z,0.10
2023-11-09T16:13:23.382Z,0.10
2023-11-09T16:15:52.710Z,0.05
2023-11-09T16:18:21.851Z,0.10
2023-11-09T16:20:49.598Z,0.08
2023-11-09T16:23:18.807Z,0.10
2023-11-09T16:25:47.856Z,0.10
2023-11-09T16:28:22.154Z,0.10
2023-11-09T16:30:49.482Z,0.20
2023-11-09T16:33:18.391Z,0.20
2023-11-09T16:35:45.631Z,0.20
2023-11-09T16:38:13.957Z,0.10
2023-11-09T16:40:40.856Z,0.10
2023-11-09T16:43:09.708Z,0.20
2023-11-09T16:45:36.672Z,0.15
2023-11-09T16:48:12.306Z,0.20
2023-11-09T16:50:39.314Z,0.30
2023-11-09T16:53:07.052Z,0.38
2023-11-09T16:58:02.087Z,0.30
2023-11-09T17:00:28.999Z,0.30
2023-11-09T17:02:56.291Z,0.85
2023-11-09T17:05:23.278Z,0.40
2023-11-09T17:07:50.115Z,0.20
2023-11-09T17:10:17.063Z,0.35
2023-11-09T17:12:44.273Z,0.30
2023-11-09T17:15:13.583Z,0.22
2023-11-09T17:17:43.823Z,0.57
2023-11-09T17:20:12.969Z,0.20
2023-11-09T17:25:09.392Z,0.60
2023-11-09T17:27:37.293Z,0.30
2023-11-09T17:30:10.766Z,0.30
2023-11-09T17:32:40.245Z,0.75
2023-11-09T17:35:08.570Z,0.20
2023-11-09T17:37:39.360Z,0.50
2023-11-09T17:40:12.497Z,0.40
2023-11-09T17:42:40.068Z,1.27
2023-11-09T17:45:08.054Z,1.10
2023-11-09T17:47:35.147Z,0.93
2023-11-09T17:50:02.340Z,0.60
2023-11-09T17:52:29.774Z,0.70
2023-11-09T17:54:56.616Z,0.70
2023-11-09T17:57:23.471Z,0.45
2023-11-09T17:59:50.516Z,0.50
2023-11-09T18:02:17.730Z,0.30
2023-11-09T18:04:44.928Z,0.40
2023-11-09T18:07:11.770Z,0.50
2023-11-09T18:09:40.148Z,0.30
2023-11-09T18:12:08.791Z,0.70
2023-11-09T18:14:37.084Z,0.40
2023-11-09T18:17:04.878Z,0.50
2023-11-09T18:19:31.828Z,0.50
2023-11-09T18:22:05.789Z,0.28
2023-11-09T18:24:35.424Z,0.55
2023-11-09T18:27:02.277Z,0.50
2023-11-09T18:29:29.215Z,0.45
2023-11-09T18:31:59.498Z,0.30
2023-11-09T18:34:28.278Z,0.40
2023-11-09T18:36:56.520Z,0.50
2023-11-09T18:39:23.945Z,0.40
2023-11-09T18:41:50.764Z,0.40
2023-11-09T18:44:20.121Z,0.40
2023-11-09T18:46:48.715Z,0.32
2023-11-09T18:54:12.579Z,0.80
2023-11-09T18:56:39.416Z,0.90
2023-11-09T18:59:07.046Z,1.10
2023-11-09T19:01:35.581Z,1.00
2023-11-09T19:08:59.353Z,1.30
2023-11-09T19:11:27.065Z,1.20
2023-11-09T19:13:56.372Z,1.45
2023-11-09T19:16:23.767Z,1.02
2023-11-09T19:18:51.298Z,1.10
2023-11-09T19:26:17.845Z,0.77
2023-11-09T19:28:44.686Z,0.80
2023-11-09T19:31:11.567Z,1.08
2023-11-09T19:33:38.808Z,0.82
2023-11-09T19:36:15.994Z,0.73
2023-11-09T19:38:45.428Z,0.98
2023-11-09T19:41:12.331Z,0.60
2023-11-09T19:43:39.221Z,0.40
2023-11-09T19:46:06.119Z,0.82
2023-11-09T19:48:33.092Z,0.52
2023-11-09T19:50:59.985Z,0.50
2023-11-09T19:53:26.887Z,0.47
2023-11-09T19:55:53.709Z,0.55
2023-11-09T19:58:20.813Z,0.50
2023-11-09T20:00:48.409Z,0.82
2023-11-09T20:03:15.357Z,0.30
2023-11-09T20:05:42.384Z,0.50
2023-11-09T20:08:09.194Z,0.30
2023-11-09T20:10:36.354Z,0.40
2023-11-09T20:13:04.862Z,0.35
2023-11-09T20:15:32.684Z,0.68
2023-11-09T20:18:01.269Z,0.35
2023-11-09T20:20:31.772Z,0.40
2023-11-09T20:22:59.083Z,0.60
2023-11-09T20:25:26.497Z,0.47
2023-11-09T20:27:55.448Z,0.40
2023-11-09T20:30:23.539Z,0.40
2023-11-09T20:32:54.353Z,0.30
2023-11-09T20:35:21.897Z,0.30
2023-11-09T20:37:48.718Z,0.40
2023-11-09T20:40:17.552Z,0.40
2023-11-09T20:42:44.927Z,0.40
2023-11-09T20:45:12.719Z,0.30
2023-11-09T20:50:38.538Z,0.38
2023-11-09T20:53:07.968Z,0.30
2023-11-09T20:55:34.985Z,0.60
2023-11-09T20:58:02.942Z,0.57
2023-11-09T21:00:33.025Z,0.70
2023-11-09T21:03:00.089Z,0.43
2023-11-09T21:05:27.090Z,0.50
2023-11-09T21:08:00.115Z,0.77
2023-11-09T21:10:28.309Z,0.40
2023-11-09T21:12:55.556Z,0.50
2023-11-09T21:15:23.260Z,0.30
2023-11-09T21:17:50.317Z,0.40
2023-11-09T21:20:18.200Z,0.60
2023-11-09T21:22:46.016Z,0.35
2023-11-09T21:25:15.839Z,0.30
2023-11-09T21:27:43.005Z,0.22
2023-11-09T21:30:10.434Z,0.52
2023-11-09T21:32:37.435Z,0.50
2023-11-09T21:35:04.720Z,0.40
2023-11-09T21:37:32.780Z,0.40
2023-11-09T21:39:59.704Z,0.40
2023-11-09T21:42:26.641Z,0.40
2023-11-09T21:44:53.480Z,0.40
2023-11-09T21:47:20.319Z,0.35
2023-11-09T21:49:48.476Z,0.52
2023-11-09T21:52:15.369Z,0.38
2023-11-09T21:54:45.730Z,0.30
2023-11-09T21:57:14.625Z,0.30
2023-11-09T21:59:41.966Z,0.20
2023-11-09T22:02:09.099Z,0.30
2023-11-09T22:04:38.835Z,0.43
2023-11-09T22:07:06.163Z,0.20
2023-11-09T22:09:34.798Z,0.22
2023-11-09T22:12:02.592Z,0.85
2023-11-09T22:14:32.987Z,0.40
2023-11-09T22:19:26.956Z,0.30
2023-11-09T22:21:53.904Z,0.35
2023-11-09T22:24:20.869Z,0.17
2023-11-09T22:26:48.565Z,0.20
2023-11-09T22:29:15.733Z,0.50
2023-11-09T22:31:42.742Z,0.25
2023-11-09T22:34:09.789Z,0.13
2023-11-09T22:36:36.649Z,0.50
2023-11-09T22:39:05.827Z,0.60
2023-11-09T22:41:36.237Z,0.40
2023-11-09T22:44:06.336Z,0.85
2023-11-09T22:46:33.178Z,0.75
2023-11-09T22:49:00.108Z,0.57
2023-11-09T22:51:27.107Z,0.35
2023-11-09T22:53:53.841Z,0.63
2023-11-09T22:56:20.748Z,0.70
2023-11-09T22:58:47.638Z,0.43
2023-11-09T23:01:23.795Z,0.90
2023-11-09T23:03:54.411Z,0.68
2023-11-09T23:06:25.186Z,0.65
2023-11-09T23:08:52.801Z,0.88
2023-11-09T23:11:19.628Z,0.60
2023-11-09T23:13:47.194Z,0.52
2023-11-09T23:16:14.159Z,0.50
2023-11-09T23:18:41.476Z,0.52
2023-11-09T23:21:08.576Z,0.68
2023-11-09T23:23:35.547Z,0.88
2023-11-09T23:26:02.665Z,0.63
2023-11-09T23:28:30.345Z,0.63
2023-11-09T23:30:57.565Z,0.73
2023-11-09T23:33:24.411Z,0.80
2023-11-09T23:35:51.752Z,1.00
2023-11-09T23:38:19.720Z,0.80
2023-11-09T23:40:46.881Z,0.52
2023-11-09T23:43:13.780Z,0.88
2023-11-09T23:45:40.688Z,1.02
2023-11-09T23:48:12.536Z,0.73
2023-11-09T23:50:41.735Z,0.82
2023-11-09T23:53:08.685Z,0.73
2023-11-09T23:55:35.507Z,0.82
2023-11-09T23:58:03.553Z,0.82
